sensor_id;sensor_type;location;lat;lon;timestamp;pressure;altitude;pressure_sealevel;temperature;humidity
10732;BME280;5417;42.686;23.244;2023-03-24T00:01:33;94386.13;;;10.02;66.70
10732;BME280;5417;42.686;23.244;2023-03-24T00:05:02;94385.41;;;10.00;66.78
10732;BME280;5417;42.686;23.244;2023-03-24T00:07:17;94372.19;;;9.92;66.72
10732;BME280;5417;42.686;23.244;2023-03-24T00:10:03;94376.56;;;9.92;67.22
10732;BME280;5417;42.686;23.244;2023-03-24T00:12:30;94383.75;;;9.88;66.99
10732;BME280;5417;42.686;23.244;2023-03-24T00:14:59;94379.63;;;9.86;67.23
10732;BME280;5417;42.686;23.244;2023-03-24T00:17:27;94389.09;;;9.87;67.14
10732;BME280;5417;42.686;23.244;2023-03-24T00:19:56;94388.13;;;9.88;67.16
10732;BME280;5417;42.686;23.244;2023-03-24T00:29:01;94374.09;;;9.79;66.87
10732;BME280;5417;42.686;23.244;2023-03-24T00:31:52;94381.78;;;9.80;67.27
10732;BME280;5417;42.686;23.244;2023-03-24T00:41:56;94365.72;;;9.75;67.68
10732;BME280;5417;42.686;23.244;2023-03-24T00:44:30;94382.00;;;9.77;67.08
10732;BME280;5417;42.686;23.244;2023-03-24T00:47:05;94371.41;;;9.69;67.65
10732;BME280;5417;42.686;23.244;2023-03-24T00:55:16;94356.31;;;9.52;67.91
10732;BME280;5417;42.686;23.244;2023-03-24T00:57:45;94368.94;;;9.57;67.82
10732;BME280;5417;42.686;23.244;2023-03-24T01:00:17;94358.66;;;9.55;67.38
10732;BME280;5417;42.686;23.244;2023-03-24T01:02:52;94371.66;;;9.55;68.14
10732;BME280;5417;42.686;23.244;2023-03-24T01:06:13;94373.06;;;9.48;67.59
10732;BME280;5417;42.686;23.244;2023-03-24T01:08:33;94368.94;;;9.45;67.79
10732;BME280;5417;42.686;23.244;2023-03-24T01:11:52;94365.63;;;9.43;67.81
10732;BME280;5417;42.686;23.244;2023-03-24T01:18:00;94359.25;;;9.36;68.31
10732;BME280;5417;42.686;23.244;2023-03-24T01:27:19;94352.41;;;9.24;68.99
10732;BME280;5417;42.686;23.244;2023-03-24T01:33:17;94350.50;;;9.26;68.92
10732;BME280;5417;42.686;23.244;2023-03-24T01:35:46;94355.59;;;9.28;68.42
10732;BME280;5417;42.686;23.244;2023-03-24T01:38:17;94340.34;;;9.23;68.08
10732;BME280;5417;42.686;23.244;2023-03-24T01:40:48;94337.75;;;9.23;68.22
10732;BME280;5417;42.686;23.244;2023-03-24T01:44:21;94343.91;;;9.22;68.08
10732;BME280;5417;42.686;23.244;2023-03-24T01:54:03;94350.63;;;9.13;68.51
10732;BME280;5417;42.686;23.244;2023-03-24T02:00:21;94353.47;;;9.10;68.33
10732;BME280;5417;42.686;23.244;2023-03-24T02:02:53;94354.28;;;9.11;68.83
10732;BME280;5417;42.686;23.244;2023-03-24T02:05:32;94362.19;;;9.09;68.91
10732;BME280;5417;42.686;23.244;2023-03-24T02:08:07;94358.66;;;9.10;69.14
10732;BME280;5417;42.686;23.244;2023-03-24T02:10:38;94361.38;;;9.09;68.17
10732;BME280;5417;42.686;23.244;2023-03-24T02:14:02;94364.91;;;9.08;69.12
10732;BME280;5417;42.686;23.244;2023-03-24T02:16:45;94340.91;;;8.82;68.47
10732;BME280;5417;42.686;23.244;2023-03-24T02:20:29;94347.66;;;8.96;68.99
10732;BME280;5417;42.686;23.244;2023-03-24T02:24:53;94369.75;;;9.01;68.16
10732;BME280;5417;42.686;23.244;2023-03-24T02:47:11;94325.78;;;8.76;69.28
10732;BME280;5417;42.686;23.244;2023-03-24T02:49:47;94321.78;;;8.83;68.42
10732;BME280;5417;42.686;23.244;2023-03-24T02:55:50;94326.66;;;8.88;69.37
10732;BME280;5417;42.686;23.244;2023-03-24T02:58:30;94329.13;;;8.89;69.16
10732;BME280;5417;42.686;23.244;2023-03-24T03:01:02;94329.84;;;8.91;69.81
10732;BME280;5417;42.686;23.244;2023-03-24T03:06:36;94333.38;;;8.90;70.06
10732;BME280;5417;42.686;23.244;2023-03-24T03:09:59;94327.25;;;8.91;69.72
10732;BME280;5417;42.686;23.244;2023-03-24T03:25:46;94290.88;;;8.80;70.71
10732;BME280;5417;42.686;23.244;2023-03-24T03:28:19;94332.09;;;9.07;70.21
10732;BME280;5417;42.686;23.244;2023-03-24T03:30:52;94318.75;;;9.00;70.26
10732;BME280;5417;42.686;23.244;2023-03-24T03:33:21;94334.34;;;9.11;70.34
10732;BME280;5417;42.686;23.244;2023-03-24T03:35:52;94339.66;;;9.10;69.77
10732;BME280;5417;42.686;23.244;2023-03-24T03:38:32;94319.00;;;9.08;70.34
10732;BME280;5417;42.686;23.244;2023-03-24T03:41:04;94319.47;;;9.13;70.28
10732;BME280;5417;42.686;23.244;2023-03-24T03:44:58;94324.53;;;9.15;69.70
10732;BME280;5417;42.686;23.244;2023-03-24T03:46:56;94321.47;;;9.10;69.48
10732;BME280;5417;42.686;23.244;2023-03-24T03:50:17;94322.53;;;9.07;70.06
10732;BME280;5417;42.686;23.244;2023-03-24T03:52:40;94327.38;;;9.01;69.97
10732;BME280;5417;42.686;23.244;2023-03-24T03:55:09;94327.72;;;8.96;69.76
10732;BME280;5417;42.686;23.244;2023-03-24T03:57:53;94336.47;;;8.95;69.73
10732;BME280;5417;42.686;23.244;2023-03-24T04:00:46;94337.53;;;8.93;69.65
10732;BME280;5417;42.686;23.244;2023-03-24T04:03:31;94336.94;;;8.89;69.89
10732;BME280;5417;42.686;23.244;2023-03-24T04:06:58;94342.47;;;8.84;69.24
10732;BME280;5417;42.686;23.244;2023-03-24T04:09:30;94341.84;;;8.81;69.75
10732;BME280;5417;42.686;23.244;2023-03-24T04:15:44;94339.13;;;8.71;70.09
10732;BME280;5417;42.686;23.244;2023-03-24T04:18:31;94332.16;;;8.72;70.03
10732;BME280;5417;42.686;23.244;2023-03-24T04:45:37;94344.16;;;9.41;69.07
10732;BME280;5417;42.686;23.244;2023-03-24T04:48:13;94353.16;;;10.03;66.38
10732;BME280;5417;42.686;23.244;2023-03-24T05:07:08;94359.28;;;14.97;52.89
10732;BME280;5417;42.686;23.244;2023-03-24T05:09:35;94355.78;;;15.58;50.28
10732;BME280;5417;42.686;23.244;2023-03-24T05:16:33;94353.06;;;17.42;45.77
10732;BME280;5417;42.686;23.244;2023-03-24T05:19:23;94360.97;;;18.05;43.95
10732;BME280;5417;42.686;23.244;2023-03-24T05:21:51;94354.47;;;18.55;41.97
10732;BME280;5417;42.686;23.244;2023-03-24T05:27:21;94364.19;;;19.31;39.82
10732;BME280;5417;42.686;23.244;2023-03-24T05:29:48;94356.41;;;19.52;38.92
10732;BME280;5417;42.686;23.244;2023-03-24T05:32:15;94354.16;;;19.79;38.72
10732;BME280;5417;42.686;23.244;2023-03-24T05:34:42;94344.06;;;19.97;38.25
10732;BME280;5417;42.686;23.244;2023-03-24T05:37:09;94355.69;;;20.47;37.78
10732;BME280;5417;42.686;23.244;2023-03-24T05:39:38;94353.97;;;20.97;37.36
10732;BME280;5417;42.686;23.244;2023-03-24T05:42:04;94338.88;;;21.33;36.15
10732;BME280;5417;42.686;23.244;2023-03-24T05:44:33;94358.53;;;21.80;35.24
10732;BME280;5417;42.686;23.244;2023-03-24T05:47:00;94356.22;;;21.98;34.55
10732;BME280;5417;42.686;23.244;2023-03-24T05:49:27;94348.13;;;22.07;34.43
10732;BME280;5417;42.686;23.244;2023-03-24T05:52:17;94346.09;;;21.81;34.59
10732;BME280;5417;42.686;23.244;2023-03-24T05:54:45;94355.69;;;21.82;34.72
10732;BME280;5417;42.686;23.244;2023-03-24T05:57:17;94345.84;;;21.69;34.58
10732;BME280;5417;42.686;23.244;2023-03-24T05:59:46;94360.38;;;20.66;36.00
10732;BME280;5417;42.686;23.244;2023-03-24T06:02:13;94357.88;;;20.14;37.39
10732;BME280;5417;42.686;23.244;2023-03-24T06:04:40;94362.09;;;19.41;38.56
10732;BME280;5417;42.686;23.244;2023-03-24T06:07:10;94349.03;;;18.56;40.16
10732;BME280;5417;42.686;23.244;2023-03-24T06:09:37;94364.91;;;18.79;40.32
10732;BME280;5417;42.686;23.244;2023-03-24T06:12:07;94364.44;;;18.99;40.29
10732;BME280;5417;42.686;23.244;2023-03-24T06:14:56;94371.81;;;19.26;39.86
10732;BME280;5417;42.686;23.244;2023-03-24T06:17:25;94368.03;;;19.43;39.64
10732;BME280;5417;42.686;23.244;2023-03-24T06:19:54;94352.81;;;19.45;39.50
10732;BME280;5417;42.686;23.244;2023-03-24T06:22:27;94371.41;;;19.52;40.35
10732;BME280;5417;42.686;23.244;2023-03-24T06:24:55;94363.56;;;19.44;40.08
10732;BME280;5417;42.686;23.244;2023-03-24T06:27:25;94370.25;;;19.69;39.94
10732;BME280;5417;42.686;23.244;2023-03-24T06:30:16;94369.19;;;20.08;39.64
10732;BME280;5417;42.686;23.244;2023-03-24T06:32:44;94360.34;;;20.81;39.38
10732;BME280;5417;42.686;23.244;2023-03-24T06:36:03;94366.06;;;21.27;37.34
10732;BME280;5417;42.686;23.244;2023-03-24T06:38:20;94360.28;;;20.96;37.92
10732;BME280;5417;42.686;23.244;2023-03-24T06:40:47;94343.88;;;21.07;38.57
10732;BME280;5417;42.686;23.244;2023-03-24T06:46:55;94367.81;;;22.25;36.01
10732;BME280;5417;42.686;23.244;2023-03-24T06:49:22;94382.06;;;22.65;35.72
10732;BME280;5417;42.686;23.244;2023-03-24T06:51:49;94366.81;;;22.81;34.87
10732;BME280;5417;42.686;23.244;2023-03-24T06:54:17;94360.38;;;23.10;34.29
10732;BME280;5417;42.686;23.244;2023-03-24T06:56:44;94360.97;;;23.25;34.32
10732;BME280;5417;42.686;23.244;2023-03-24T06:59:10;94360.78;;;23.26;33.60
10732;BME280;5417;42.686;23.244;2023-03-24T07:05:26;94376.53;;;23.48;33.75
10732;BME280;5417;42.686;23.244;2023-03-24T07:07:53;94376.97;;;22.71;33.92
10732;BME280;5417;42.686;23.244;2023-03-24T07:11:12;94385.84;;;22.43;34.86
10732;BME280;5417;42.686;23.244;2023-03-24T07:13:33;94381.59;;;22.08;35.58
10732;BME280;5417;42.686;23.244;2023-03-24T07:19:04;94394.00;;;21.30;36.65
10732;BME280;5417;42.686;23.244;2023-03-24T07:21:33;94389.75;;;20.93;37.11
10732;BME280;5417;42.686;23.244;2023-03-24T07:24:00;94400.09;;;20.73;38.36
10732;BME280;5417;42.686;23.244;2023-03-24T07:26:27;94389.91;;;20.70;37.90
10732;BME280;5417;42.686;23.244;2023-03-24T07:28:54;94389.53;;;20.73;38.86
10732;BME280;5417;42.686;23.244;2023-03-24T07:31:21;94393.56;;;20.69;38.06
10732;BME280;5417;42.686;23.244;2023-03-24T07:34:16;94396.50;;;20.59;38.50
10732;BME280;5417;42.686;23.244;2023-03-24T07:36:54;94396.97;;;20.48;39.16
10732;BME280;5417;42.686;23.244;2023-03-24T07:39:22;94396.78;;;20.50;38.68
10732;BME280;5417;42.686;23.244;2023-03-24T07:41:48;94391.88;;;20.32;38.43
10732;BME280;5417;42.686;23.244;2023-03-24T07:44:15;94389.03;;;20.18;39.39
10732;BME280;5417;42.686;23.244;2023-03-24T07:46:42;94392.44;;;20.42;39.86
10732;BME280;5417;42.686;23.244;2023-03-24T07:49:09;94389.13;;;20.55;39.13
10732;BME280;5417;42.686;23.244;2023-03-24T07:51:36;94391.22;;;20.59;38.55
10732;BME280;5417;42.686;23.244;2023-03-24T07:54:04;94386.75;;;20.60;38.78
10732;BME280;5417;42.686;23.244;2023-03-24T07:56:32;94374.53;;;20.80;39.16
10732;BME280;5417;42.686;23.244;2023-03-24T07:58:59;94371.63;;;20.90;38.38
10732;BME280;5417;42.686;23.244;2023-03-24T08:01:26;94372.00;;;20.87;37.50
10732;BME280;5417;42.686;23.244;2023-03-24T08:03:53;94371.75;;;20.82;37.58
10732;BME280;5417;42.686;23.244;2023-03-24T08:06:20;94377.44;;;20.64;37.63
10732;BME280;5417;42.686;23.244;2023-03-24T08:08:47;94359.66;;;20.58;37.88
10732;BME280;5417;42.686;23.244;2023-03-24T08:11:16;94363.69;;;20.54;37.75
10732;BME280;5417;42.686;23.244;2023-03-24T08:13:43;94358.09;;;20.63;38.10
10732;BME280;5417;42.686;23.244;2023-03-24T08:16:09;94369.53;;;20.49;37.77
10732;BME280;5417;42.686;23.244;2023-03-24T08:18:36;94365.06;;;20.20;37.58
10732;BME280;5417;42.686;23.244;2023-03-24T08:21:04;94360.59;;;20.35;38.28
10732;BME280;5417;42.686;23.244;2023-03-24T08:23:31;94353.09;;;20.54;38.69
10732;BME280;5417;42.686;23.244;2023-03-24T08:25:58;94331.13;;;20.53;37.66
10732;BME280;5417;42.686;23.244;2023-03-24T08:28:27;94352.84;;;20.48;37.54
10732;BME280;5417;42.686;23.244;2023-03-24T08:30:53;94349.28;;;20.56;37.26
10732;BME280;5417;42.686;23.244;2023-03-24T08:33:20;94348.75;;;20.46;37.22
10732;BME280;5417;42.686;23.244;2023-03-24T08:35:47;94350.22;;;20.48;38.24
10732;BME280;5417;42.686;23.244;2023-03-24T08:38:15;94342.09;;;20.50;38.36
10732;BME280;5417;42.686;23.244;2023-03-24T08:40:42;94342.19;;;20.42;37.70
10732;BME280;5417;42.686;23.244;2023-03-24T08:43:13;94342.47;;;20.32;37.60
10732;BME280;5417;42.686;23.244;2023-03-24T08:45:41;94337.09;;;20.11;39.60
10732;BME280;5417;42.686;23.244;2023-03-24T08:48:09;94343.47;;;20.16;39.39
10732;BME280;5417;42.686;23.244;2023-03-24T08:50:37;94340.50;;;20.05;38.65
10732;BME280;5417;42.686;23.244;2023-03-24T08:53:06;94320.28;;;19.97;38.75
10732;BME280;5417;42.686;23.244;2023-03-24T08:55:33;94320.09;;;19.99;38.60
10732;BME280;5417;42.686;23.244;2023-03-24T08:58:01;94326.19;;;19.99;38.52
10732;BME280;5417;42.686;23.244;2023-03-24T09:00:29;94325.94;;;19.94;38.63
10732;BME280;5417;42.686;23.244;2023-03-24T09:02:57;94310.78;;;19.73;39.06
10732;BME280;5417;42.686;23.244;2023-03-24T09:05:25;94307.25;;;19.81;39.44
10732;BME280;5417;42.686;23.244;2023-03-24T09:07:52;94307.59;;;20.07;38.89
10732;BME280;5417;42.686;23.244;2023-03-24T09:10:26;94314.50;;;20.08;39.25
10732;BME280;5417;42.686;23.244;2023-03-24T09:13:07;94303.69;;;20.03;40.24
10732;BME280;5417;42.686;23.244;2023-03-24T09:15:34;94304.63;;;19.81;39.50
10732;BME280;5417;42.686;23.244;2023-03-24T09:18:03;94300.13;;;19.96;41.32
10732;BME280;5417;42.686;23.244;2023-03-24T09:20:30;94291.28;;;20.04;40.42
10732;BME280;5417;42.686;23.244;2023-03-24T09:22:57;94294.25;;;20.15;39.60
10732;BME280;5417;42.686;23.244;2023-03-24T09:25:24;94292.22;;;19.96;39.11
10732;BME280;5417;42.686;23.244;2023-03-24T09:27:51;94285.78;;;19.84;39.31
10732;BME280;5417;42.686;23.244;2023-03-24T09:30:18;94288.13;;;19.94;39.43
10732;BME280;5417;42.686;23.244;2023-03-24T09:32:45;94284.56;;;20.01;40.57
10732;BME280;5417;42.686;23.244;2023-03-24T09:35:14;94284.03;;;19.62;39.64
10732;BME280;5417;42.686;23.244;2023-03-24T09:37:41;94285.13;;;19.52;41.69
10732;BME280;5417;42.686;23.244;2023-03-24T09:40:16;94277.09;;;19.46;40.53
10732;BME280;5417;42.686;23.244;2023-03-24T09:42:49;94283.75;;;19.71;40.19
10732;BME280;5417;42.686;23.244;2023-03-24T09:45:20;94274.47;;;19.90;39.31
10732;BME280;5417;42.686;23.244;2023-03-24T09:47:51;94271.78;;;20.05;39.17
10732;BME280;5417;42.686;23.244;2023-03-24T09:50:23;94259.88;;;19.94;39.48
10732;BME280;5417;42.686;23.244;2023-03-24T09:52:53;94259.34;;;20.20;38.97
10732;BME280;5417;42.686;23.244;2023-03-24T09:55:23;94257.06;;;20.32;37.69
10732;BME280;5417;42.686;23.244;2023-03-24T09:57:51;94259.34;;;20.35;38.63
10732;BME280;5417;42.686;23.244;2023-03-24T10:00:21;94253.84;;;20.36;37.88
10732;BME280;5417;42.686;23.244;2023-03-24T10:02:49;94245.25;;;20.49;38.08
10732;BME280;5417;42.686;23.244;2023-03-24T10:05:19;94241.78;;;20.48;37.88
10732;BME280;5417;42.686;23.244;2023-03-24T10:07:56;94249.53;;;20.71;37.39
10732;BME280;5417;42.686;23.244;2023-03-24T10:10:36;94247.25;;;20.68;37.68
10732;BME280;5417;42.686;23.244;2023-03-24T10:13:06;94226.69;;;20.64;37.50
10732;BME280;5417;42.686;23.244;2023-03-24T10:15:39;94232.41;;;20.67;36.81
10732;BME280;5417;42.686;23.244;2023-03-24T10:18:22;94233.16;;;20.83;37.86
10732;BME280;5417;42.686;23.244;2023-03-24T10:20:56;94234.09;;;20.96;38.05
10732;BME280;5417;42.686;23.244;2023-03-24T10:23:33;94222.13;;;20.79;36.88
10732;BME280;5417;42.686;23.244;2023-03-24T10:26:06;94218.66;;;20.36;36.80
10732;BME280;5417;42.686;23.244;2023-03-24T10:28:42;94227.13;;;20.46;37.93
10732;BME280;5417;42.686;23.244;2023-03-24T10:31:13;94216.19;;;20.49;36.62
10732;BME280;5417;42.686;23.244;2023-03-24T10:33:42;94222.19;;;20.64;36.61
10732;BME280;5417;42.686;23.244;2023-03-24T10:36:12;94217.56;;;20.45;36.30
10732;BME280;5417;42.686;23.244;2023-03-24T10:38:41;94220.22;;;20.45;36.53
10732;BME280;5417;42.686;23.244;2023-03-24T10:41:13;94213.84;;;20.39;36.95
10732;BME280;5417;42.686;23.244;2023-03-24T10:43:42;94206.56;;;20.41;37.58
10732;BME280;5417;42.686;23.244;2023-03-24T10:46:11;94194.59;;;19.88;36.24
10732;BME280;5417;42.686;23.244;2023-03-24T10:48:42;94195.09;;;19.98;35.56
10732;BME280;5417;42.686;23.244;2023-03-24T10:51:14;94206.13;;;20.23;35.88
10732;BME280;5417;42.686;23.244;2023-03-24T10:53:44;94206.75;;;20.40;35.53
10732;BME280;5417;42.686;23.244;2023-03-24T10:56:17;94196.84;;;19.91;36.55
10732;BME280;5417;42.686;23.244;2023-03-24T10:58:45;94202.53;;;19.59;36.01
10732;BME280;5417;42.686;23.244;2023-03-24T11:01:24;94207.38;;;19.55;34.69
10732;BME280;5417;42.686;23.244;2023-03-24T11:03:57;94218.47;;;19.80;34.98
10732;BME280;5417;42.686;23.244;2023-03-24T11:06:25;94203.34;;;19.74;34.88
10732;BME280;5417;42.686;23.244;2023-03-24T11:09:09;94206.97;;;19.73;34.19
10732;BME280;5417;42.686;23.244;2023-03-24T11:11:43;94205.78;;;19.90;35.19
10732;BME280;5417;42.686;23.244;2023-03-24T11:14:20;94201.53;;;20.10;35.71
10732;BME280;5417;42.686;23.244;2023-03-24T11:17:09;94191.06;;;19.81;35.05
10732;BME280;5417;42.686;23.244;2023-03-24T11:19:38;94191.44;;;19.99;35.30
10732;BME280;5417;42.686;23.244;2023-03-24T11:22:07;94185.91;;;20.15;34.47
10732;BME280;5417;42.686;23.244;2023-03-24T11:24:37;94162.38;;;19.63;36.24
10732;BME280;5417;42.686;23.244;2023-03-24T11:27:05;94180.59;;;19.43;36.33
10732;BME280;5417;42.686;23.244;2023-03-24T11:29:37;94156.03;;;19.13;35.45
10732;BME280;5417;42.686;23.244;2023-03-24T11:32:10;94158.56;;;19.21;35.16
10732;BME280;5417;42.686;23.244;2023-03-24T11:36:02;94164.50;;;19.53;34.89
10732;BME280;5417;42.686;23.244;2023-03-24T11:37:48;94150.38;;;19.61;35.42
10732;BME280;5417;42.686;23.244;2023-03-24T11:40:20;94150.25;;;19.83;35.73
10732;BME280;5417;42.686;23.244;2023-03-24T11:42:49;94152.06;;;20.04;34.92
10732;BME280;5417;42.686;23.244;2023-03-24T11:45:24;94148.91;;;20.15;35.08
10732;BME280;5417;42.686;23.244;2023-03-24T11:47:55;94142.25;;;20.20;33.98
10732;BME280;5417;42.686;23.244;2023-03-24T11:50:26;94142.59;;;20.31;35.56
10732;BME280;5417;42.686;23.244;2023-03-24T11:52:59;94135.53;;;20.17;34.91
10732;BME280;5417;42.686;23.244;2023-03-24T11:55:34;94137.47;;;20.08;35.10
10732;BME280;5417;42.686;23.244;2023-03-24T11:58:08;94131.09;;;20.24;35.13
10732;BME280;5417;42.686;23.244;2023-03-24T12:00:41;94128.66;;;20.23;34.70
10732;BME280;5417;42.686;23.244;2023-03-24T12:06:20;94131.63;;;20.13;35.49
10732;BME280;5417;42.686;23.244;2023-03-24T12:08:58;94111.56;;;19.97;35.43
10732;BME280;5417;42.686;23.244;2023-03-24T12:11:45;94103.25;;;20.00;35.38
10732;BME280;5417;42.686;23.244;2023-03-24T12:14:18;94118.31;;;20.28;34.54
10732;BME280;5417;42.686;23.244;2023-03-24T12:17:01;94105.28;;;20.41;34.16
10732;BME280;5417;42.686;23.244;2023-03-24T12:19:51;94104.34;;;20.55;34.39
10732;BME280;5417;42.686;23.244;2023-03-24T12:22:40;94108.13;;;20.74;32.67
10732;BME280;5417;42.686;23.244;2023-03-24T12:25:32;94101.84;;;20.75;32.05
10732;BME280;5417;42.686;23.244;2023-03-24T12:28:15;94095.63;;;20.89;32.59
10732;BME280;5417;42.686;23.244;2023-03-24T12:30:56;94079.84;;;21.09;32.98
10732;BME280;5417;42.686;23.244;2023-03-24T12:33:36;94082.19;;;21.25;31.48
10732;BME280;5417;42.686;23.244;2023-03-24T12:36:38;94082.06;;;21.40;31.63
10732;BME280;5417;42.686;23.244;2023-03-24T12:39:08;94071.25;;;21.35;31.33
10732;BME280;5417;42.686;23.244;2023-03-24T12:42:06;94072.50;;;21.46;31.17
10732;BME280;5417;42.686;23.244;2023-03-24T12:44:59;94063.97;;;21.57;31.27
10732;BME280;5417;42.686;23.244;2023-03-24T12:50:38;94054.63;;;21.74;30.57
10732;BME280;5417;42.686;23.244;2023-03-24T12:53:28;94049.53;;;21.72;29.92
10732;BME280;5417;42.686;23.244;2023-03-24T12:56:04;94043.78;;;21.49;29.25
10732;BME280;5417;42.686;23.244;2023-03-24T12:59:03;94049.91;;;21.50;30.03
10732;BME280;5417;42.686;23.244;2023-03-24T13:01:38;94033.38;;;21.34;29.86
10732;BME280;5417;42.686;23.244;2023-03-24T13:04:08;94048.47;;;20.99;29.93
10732;BME280;5417;42.686;23.244;2023-03-24T13:06:41;94038.66;;;20.87;30.35
10732;BME280;5417;42.686;23.244;2023-03-24T13:09:22;94034.66;;;20.69;30.55
10732;BME280;5417;42.686;23.244;2023-03-24T13:12:28;94035.91;;;20.73;29.98
10732;BME280;5417;42.686;23.244;2023-03-24T13:15:37;94038.50;;;20.67;30.52
10732;BME280;5417;42.686;23.244;2023-03-24T13:18:20;94024.13;;;20.20;30.22
10732;BME280;5417;42.686;23.244;2023-03-24T13:20:54;94032.75;;;20.29;30.35
10732;BME280;5417;42.686;23.244;2023-03-24T13:23:30;94035.66;;;20.34;30.55
10732;BME280;5417;42.686;23.244;2023-03-24T13:26:05;94032.88;;;20.42;29.40
10732;BME280;5417;42.686;23.244;2023-03-24T13:29:03;94038.16;;;20.42;29.76
10732;BME280;5417;42.686;23.244;2023-03-24T13:31:33;94030.25;;;20.42;30.07
10732;BME280;5417;42.686;23.244;2023-03-24T13:34:04;94022.31;;;20.42;29.90
10732;BME280;5417;42.686;23.244;2023-03-24T13:36:43;94027.59;;;20.42;29.91
10732;BME280;5417;42.686;23.244;2023-03-24T13:39:13;94027.47;;;20.57;30.44
10732;BME280;5417;42.686;23.244;2023-03-24T13:41:46;94014.22;;;20.50;30.33
10732;BME280;5417;42.686;23.244;2023-03-24T13:44:19;94004.00;;;20.40;30.60
10732;BME280;5417;42.686;23.244;2023-03-24T13:47:02;94016.72;;;20.30;31.29
10732;BME280;5417;42.686;23.244;2023-03-24T13:49:32;94011.59;;;20.29;30.54
10732;BME280;5417;42.686;23.244;2023-03-24T13:52:03;94001.88;;;20.29;31.48
10732;BME280;5417;42.686;23.244;2023-03-24T13:54:34;94007.25;;;20.42;31.18
10732;BME280;5417;42.686;23.244;2023-03-24T13:57:14;94006.81;;;20.39;31.13
10732;BME280;5417;42.686;23.244;2023-03-24T13:59:59;93993.47;;;20.47;29.26
10732;BME280;5417;42.686;23.244;2023-03-24T14:02:51;93998.25;;;20.37;29.71
10732;BME280;5417;42.686;23.244;2023-03-24T14:05:59;93990.13;;;20.38;30.52
10732;BME280;5417;42.686;23.244;2023-03-24T14:08:53;93987.00;;;20.28;29.96
10732;BME280;5417;42.686;23.244;2023-03-24T14:14:34;93968.31;;;20.30;29.65
10732;BME280;5417;42.686;23.244;2023-03-24T14:17:10;93971.00;;;20.36;29.09
10732;BME280;5417;42.686;23.244;2023-03-24T14:19:38;93977.50;;;20.34;28.93
10732;BME280;5417;42.686;23.244;2023-03-24T14:22:28;93974.16;;;20.53;29.19
10732;BME280;5417;42.686;23.244;2023-03-24T14:24:57;93965.16;;;20.41;29.10
10732;BME280;5417;42.686;23.244;2023-03-24T14:28:04;93986.94;;;20.43;29.31
10732;BME280;5417;42.686;23.244;2023-03-24T14:30:29;93979.06;;;20.28;28.70
10732;BME280;5417;42.686;23.244;2023-03-24T14:35:56;93972.28;;;20.40;28.94
10732;BME280;5417;42.686;23.244;2023-03-24T14:38:27;93976.28;;;20.36;29.19
10732;BME280;5417;42.686;23.244;2023-03-24T14:41:07;93967.94;;;20.33;28.82
10732;BME280;5417;42.686;23.244;2023-03-24T14:43:53;93979.94;;;20.35;29.01
10732;BME280;5417;42.686;23.244;2023-03-24T14:46:38;93979.13;;;20.35;28.86
10732;BME280;5417;42.686;23.244;2023-03-24T14:49:14;93976.09;;;20.38;28.40
10732;BME280;5417;42.686;23.244;2023-03-24T14:51:47;93970.81;;;20.38;28.53
10732;BME280;5417;42.686;23.244;2023-03-24T14:54:23;93969.63;;;20.40;28.46
10732;BME280;5417;42.686;23.244;2023-03-24T14:56:53;93963.97;;;20.50;28.26
10732;BME280;5417;42.686;23.244;2023-03-24T14:59:29;93960.91;;;20.46;28.38
10732;BME280;5417;42.686;23.244;2023-03-24T15:02:26;93968.25;;;20.51;28.59
10732;BME280;5417;42.686;23.244;2023-03-24T15:05:29;93964.63;;;20.59;28.95
10732;BME280;5417;42.686;23.244;2023-03-24T15:08:11;93949.56;;;20.53;28.77
10732;BME280;5417;42.686;23.244;2023-03-24T15:11:07;93958.91;;;20.48;28.79
10732;BME280;5417;42.686;23.244;2023-03-24T15:13:38;93958.91;;;20.48;28.62
10732;BME280;5417;42.686;23.244;2023-03-24T15:16:16;93954.63;;;20.47;29.03
10732;BME280;5417;42.686;23.244;2023-03-24T15:18:46;93960.69;;;20.41;27.79
10732;BME280;5417;42.686;23.244;2023-03-24T15:21:34;93955.41;;;20.41;27.87
10732;BME280;5417;42.686;23.244;2023-03-24T15:27:05;93960.69;;;20.41;28.35
10732;BME280;5417;42.686;23.244;2023-03-24T15:30:02;93965.97;;;20.41;28.32
10732;BME280;5417;42.686;23.244;2023-03-24T15:32:29;93963.00;;;20.58;27.70
10732;BME280;5417;42.686;23.244;2023-03-24T15:34:58;93957.50;;;20.53;27.79
10732;BME280;5417;42.686;23.244;2023-03-24T15:37:51;93961.72;;;20.47;28.08
10732;BME280;5417;42.686;23.244;2023-03-24T15:40:38;93958.69;;;20.50;27.80
10732;BME280;5417;42.686;23.244;2023-03-24T15:43:15;93956.41;;;20.40;27.73
10732;BME280;5417;42.686;23.244;2023-03-24T15:45:50;93942.72;;;20.30;27.81
10732;BME280;5417;42.686;23.244;2023-03-24T15:49:13;93948.66;;;20.39;27.94
10732;BME280;5417;42.686;23.244;2023-03-24T15:51:54;93952.13;;;20.39;27.99
10732;BME280;5417;42.686;23.244;2023-03-24T15:54:43;93948.41;;;20.34;27.95
10732;BME280;5417;42.686;23.244;2023-03-24T15:57:15;93947.34;;;20.28;28.61
10732;BME280;5417;42.686;23.244;2023-03-24T15:59:46;93952.19;;;20.25;28.56
10732;BME280;5417;42.686;23.244;2023-03-24T16:02:22;93951.78;;;20.21;28.58
10732;BME280;5417;42.686;23.244;2023-03-24T16:04:52;93950.94;;;20.14;28.80
10732;BME280;5417;42.686;23.244;2023-03-24T16:07:23;93927.91;;;20.08;28.66
10732;BME280;5417;42.686;23.244;2023-03-24T16:09:55;93955.34;;;20.35;28.66
10732;BME280;5417;42.686;23.244;2023-03-24T16:12:29;93947.19;;;20.30;29.04
10732;BME280;5417;42.686;23.244;2023-03-24T16:14:57;93952.41;;;20.23;29.43
10732;BME280;5417;42.686;23.244;2023-03-24T16:17:24;93955.81;;;20.17;29.62
10732;BME280;5417;42.686;23.244;2023-03-24T16:23:38;93952.13;;;20.11;30.38
10732;BME280;5417;42.686;23.244;2023-03-24T16:29:03;93954.09;;;20.03;30.76
10732;BME280;5417;42.686;23.244;2023-03-24T16:29:51;93955.06;;;19.95;30.99
10732;BME280;5417;42.686;23.244;2023-03-24T16:32:19;93956.03;;;19.88;31.09
10732;BME280;5417;42.686;23.244;2023-03-24T16:35:08;93956.38;;;19.78;32.19
10732;BME280;5417;42.686;23.244;2023-03-24T16:37:51;93947.75;;;19.69;32.49